createdAt,value
2022-09-10T00:02:37.489Z,8.17
2022-09-10T00:05:46.656Z,9.37
2022-09-10T00:08:52.923Z,9.73
2022-09-10T00:11:59.274Z,9.57
2022-09-10T00:15:07.968Z,9.30
2022-09-10T00:18:15.579Z,8.67
2022-09-10T00:21:23.094Z,10.83
2022-09-10T00:24:29.327Z,8.73
2022-09-10T00:27:37.300Z,11.67
2022-09-10T00:30:44.877Z,7.83
2022-09-10T00:33:51.439Z,7.83
2022-09-10T00:36:59.485Z,11.07
2022-09-10T00:40:06.589Z,6.90
2022-09-10T00:43:15.223Z,7.80
2022-09-10T00:46:32.918Z,7.73
2022-09-10T00:49:41.879Z,8.03
2022-09-10T00:52:51.476Z,22.10
2022-09-10T00:56:05.339Z,9.53
2022-09-10T00:59:14.694Z,8.63
2022-09-10T01:02:21.721Z,11.20
2022-09-10T01:05:29.415Z,9.67
2022-09-10T01:08:37.453Z,12.53
2022-09-10T01:12:05.059Z,15.40
2022-09-10T01:15:23.276Z,10.03
2022-09-10T01:18:38.147Z,12.43
2022-09-10T01:21:52.098Z,11.73
2022-09-10T01:25:06.163Z,14.07
2022-09-10T01:28:19.456Z,15.13
2022-09-10T01:31:32.515Z,8.90
2022-09-10T01:34:43.655Z,9.07
2022-09-10T01:37:54.620Z,9.77
2022-09-10T01:41:01.151Z,9.47
2022-09-10T01:44:28.154Z,7.80
2022-09-10T01:47:53.186Z,8.90
2022-09-10T01:51:08.959Z,10.73
2022-09-10T01:54:26.466Z,11.17
2022-09-10T01:57:45.048Z,10.23
2022-09-10T02:01:01.779Z,9.53
2022-09-10T02:04:14.855Z,9.60
2022-09-10T02:07:25.466Z,9.03
2022-09-10T02:10:31.926Z,10.47
2022-09-10T02:13:38.867Z,9.97
2022-09-10T02:16:51.568Z,9.83
2022-09-10T02:19:58.491Z,15.33
2022-09-10T02:23:06.451Z,14.67
2022-09-10T02:26:14.569Z,10.97
2022-09-10T02:29:20.834Z,14.27
2022-09-10T02:32:28.889Z,7.37
2022-09-10T02:35:34.821Z,10.20
2022-09-10T02:38:41.188Z,8.50
2022-09-10T02:41:48.218Z,8.53
2022-09-10T02:44:54.283Z,10.63
2022-09-10T02:48:02.185Z,10.10
2022-09-10T02:51:08.494Z,13.10
2022-09-10T02:54:14.795Z,10.67
2022-09-10T02:57:21.232Z,9.30
2022-09-10T03:00:27.431Z,9.27
2022-09-10T03:03:35.611Z,8.17
2022-09-10T03:06:43.372Z,10.33
2022-09-10T03:09:49.952Z,9.00
2022-09-10T03:12:56.275Z,8.33
2022-09-10T03:16:04.720Z,9.93
2022-09-10T03:19:12.556Z,8.87
2022-09-10T03:22:18.890Z,8.77
2022-09-10T03:25:25.125Z,10.37
2022-09-10T03:28:33.075Z,18.00
2022-09-10T03:31:39.899Z,9.43
2022-09-10T03:34:49.283Z,10.67
2022-09-10T03:37:55.753Z,12.07
2022-09-10T03:41:03.240Z,11.87
2022-09-10T03:44:10.367Z,14.27
2022-09-10T03:47:16.827Z,16.20
2022-09-10T03:50:24.737Z,11.83
2022-09-10T03:53:31.182Z,12.77
2022-09-10T03:56:37.328Z,19.50
2022-09-10T03:59:43.878Z,12.60
2022-09-10T04:02:50.316Z,18.97
2022-09-10T04:05:58.604Z,12.43
2022-09-10T04:09:05.367Z,14.93
2022-09-10T04:12:11.582Z,8.77
2022-09-10T04:15:17.659Z,11.27
2022-09-10T04:18:23.838Z,15.60
2022-09-10T04:21:31.666Z,14.97
2022-09-10T04:24:37.755Z,13.80
2022-09-10T04:27:44.191Z,10.40
2022-09-10T04:30:51.349Z,7.97
2022-09-10T04:34:00.252Z,13.17
2022-09-10T04:37:07.995Z,10.20
2022-09-10T04:40:14.062Z,10.50
2022-09-10T04:43:20.231Z,11.13
2022-09-10T04:46:26.850Z,17.77
2022-09-10T04:49:32.889Z,10.60
2022-09-10T04:52:41.425Z,10.43
2022-09-10T04:55:49.252Z,14.27
2022-09-10T04:58:55.755Z,10.53
2022-09-10T05:02:02.323Z,15.10
2022-09-10T05:05:09.621Z,10.23
2022-09-10T05:08:17.347Z,12.87
2022-09-10T05:11:23.842Z,12.77
2022-09-10T05:14:30.666Z,13.50
2022-09-10T05:17:36.826Z,12.50
2022-09-10T05:20:44.877Z,10.37
2022-09-10T05:23:52.600Z,11.40
2022-09-10T05:26:59.373Z,10.53
2022-09-10T05:30:06.448Z,12.73
2022-09-10T05:33:13.006Z,10.57
2022-09-10T05:36:19.488Z,18.87
2022-09-10T05:39:27.184Z,16.93
2022-09-10T05:42:33.176Z,13.23
2022-09-10T05:45:39.755Z,11.27
2022-09-10T05:48:46.100Z,17.77
2022-09-10T05:51:52.731Z,16.93
2022-09-10T05:55:00.073Z,17.77
2022-09-10T05:58:06.336Z,15.30
2022-09-10T06:01:12.718Z,18.33
2022-09-10T06:04:19.893Z,18.03
2022-09-10T06:07:26.196Z,15.87
2022-09-10T06:10:35.338Z,15.30
2022-09-10T06:13:42.642Z,18.10
2022-09-10T06:16:50.103Z,20.13
2022-09-10T06:19:56.397Z,20.53
2022-09-10T06:23:02.874Z,13.20
2022-09-10T06:26:12.999Z,15.80
2022-09-10T06:29:19.986Z,13.97
2022-09-10T06:32:26.253Z,15.63
2022-09-10T06:35:33.401Z,21.40
2022-09-10T06:38:39.917Z,20.10
2022-09-10T06:41:49.769Z,16.27
2022-09-10T06:44:56.350Z,21.37
2022-09-10T06:51:29.601Z,13.77
2022-09-10T06:54:35.763Z,24.17
2022-09-10T06:57:43.383Z,17.60
2022-09-10T07:00:50.235Z,17.73
2022-09-10T07:03:57.976Z,24.27
2022-09-10T07:07:04.060Z,24.70
2022-09-10T07:10:10.803Z,23.33
2022-09-10T07:13:18.503Z,27.97
2022-09-10T07:16:26.932Z,24.17
2022-09-10T07:19:36.359Z,21.60
2022-09-10T07:22:43.901Z,22.50
2022-09-10T07:25:50.231Z,18.70
2022-09-10T07:28:59.043Z,23.00
2022-09-10T07:32:05.650Z,19.90
2022-09-10T07:35:11.635Z,17.57
2022-09-10T07:38:18.172Z,21.20
2022-09-10T07:41:24.546Z,21.30
2022-09-10T07:44:32.066Z,22.37
2022-09-10T07:47:38.523Z,18.37
2022-09-10T07:50:45.526Z,20.67
2022-09-10T07:53:55.226Z,18.00
2022-09-10T07:57:01.393Z,17.47
2022-09-10T08:00:14.854Z,16.50
2022-09-10T08:03:21.636Z,24.37
2022-09-10T08:06:27.697Z,11.70
2022-09-10T08:09:34.523Z,15.67
2022-09-10T08:12:41.987Z,14.53
2022-09-10T08:15:50.478Z,14.37
2022-09-10T08:18:58.018Z,13.07
2022-09-10T08:22:04.487Z,13.30
2022-09-10T08:25:10.438Z,11.60
2022-09-10T08:28:19.066Z,11.00
2022-09-10T08:31:28.778Z,11.67
2022-09-10T08:34:34.744Z,10.40
2022-09-10T08:37:40.956Z,10.33
2022-09-10T08:40:48.783Z,9.77
2022-09-10T08:43:59.522Z,9.40
2022-09-10T08:47:21.388Z,9.60
2022-09-10T08:50:39.035Z,10.97
2022-09-10T08:53:51.111Z,9.87
2022-09-10T08:57:00.508Z,7.93
2022-09-10T09:00:12.228Z,11.73
2022-09-10T09:03:26.425Z,12.43
2022-09-10T09:06:39.622Z,10.63
2022-09-10T09:09:45.824Z,10.10
2022-09-10T09:13:17.971Z,14.10
2022-09-10T09:16:42.633Z,11.90
2022-09-10T09:20:01.748Z,9.53
2022-09-10T09:23:20.753Z,10.33
2022-09-10T09:26:36.093Z,11.83
2022-09-10T09:29:47.858Z,10.27
2022-09-10T09:32:58.742Z,16.13
2022-09-10T09:36:07.411Z,8.93
2022-09-10T09:39:23.879Z,10.93
2022-09-10T09:42:41.148Z,18.13
2022-09-10T09:45:47.848Z,9.40
2022-09-10T09:48:59.464Z,11.40
2022-09-10T09:52:19.754Z,9.68
2022-09-10T09:55:33.041Z,9.57
2022-09-10T09:58:40.454Z,11.60
2022-09-10T10:01:46.618Z,14.10
2022-09-10T10:04:57.148Z,12.00
2022-09-10T10:08:04.638Z,10.18
2022-09-10T10:11:16.988Z,14.80
2022-09-10T10:14:38.807Z,12.43
2022-09-10T10:17:45.083Z,10.93
2022-09-10T10:21:07.352Z,12.18
2022-09-10T10:24:31.904Z,11.95
2022-09-10T10:27:42.753Z,13.40
2022-09-10T10:30:53.624Z,8.02
2022-09-10T10:34:15.277Z,9.18
2022-09-10T10:37:35.379Z,9.13
2022-09-10T10:40:48.718Z,9.38
2022-09-10T10:44:10.434Z,12.65
2022-09-10T10:47:33.560Z,9.13
2022-09-10T10:50:52.909Z,8.77
2022-09-10T10:54:22.260Z,9.45
2022-09-10T10:57:41.315Z,6.82
2022-09-10T11:00:53.285Z,7.53
2022-09-10T11:04:23.221Z,8.00
2022-09-10T11:07:35.645Z,9.35
2022-09-10T11:10:46.359Z,9.93
2022-09-10T11:14:00.158Z,6.75
2022-09-10T11:17:11.650Z,11.02
2022-09-10T11:20:28.993Z,6.70
2022-09-10T11:23:40.555Z,6.45
2022-09-10T11:26:52.279Z,5.72
2022-09-10T11:30:04.783Z,6.18
2022-09-10T11:33:21.365Z,7.85
2022-09-10T11:36:34.712Z,6.32
2022-09-10T11:39:46.797Z,6.70
2022-09-10T11:42:56.747Z,6.35
2022-09-10T11:46:10.013Z,16.30
2022-09-10T11:49:21.852Z,5.75
2022-09-10T11:52:31.023Z,6.15
2022-09-10T11:56:05.227Z,6.65
2022-09-10T11:59:27.102Z,6.20
2022-09-10T12:03:05.097Z,5.90
2022-09-10T12:06:21.594Z,6.05
2022-09-10T12:09:35.214Z,6.45
2022-09-10T12:12:44.284Z,9.13
2022-09-10T12:15:56.175Z,7.70
2022-09-10T12:19:08.280Z,11.60
2022-09-10T12:22:21.865Z,7.40
2022-09-10T12:25:34.312Z,6.97
2022-09-10T12:29:05.546Z,9.90
2022-09-10T12:32:38.606Z,11.73
2022-09-10T12:35:48.625Z,12.05
2022-09-10T12:38:57.688Z,8.77
2022-09-10T12:42:24.586Z,7.60
2022-09-10T12:46:05.615Z,7.03
2022-09-10T12:49:15.136Z,13.02
2022-09-10T12:52:32.292Z,7.82
2022-09-10T12:55:44.764Z,12.35
2022-09-10T12:59:07.014Z,8.18
2022-09-10T13:02:32.019Z,9.35
2022-09-10T13:05:51.782Z,6.60
2022-09-10T13:09:00.206Z,28.60
2022-09-10T13:12:19.720Z,16.80
2022-09-10T13:15:30.128Z,10.38
2022-09-10T13:18:37.056Z,7.72
2022-09-10T13:21:54.984Z,6.63
2022-09-10T13:25:07.343Z,4.57
2022-09-10T13:28:50.499Z,10.48
2022-09-10T13:32:02.432Z,7.00
2022-09-10T13:35:45.442Z,4.03
2022-09-10T13:39:21.884Z,4.70
2022-09-10T13:42:58.403Z,4.82
2022-09-10T13:46:08.049Z,6.05
2022-09-10T13:49:20.122Z,5.15
2022-09-10T13:52:30.890Z,5.05
2022-09-10T13:55:38.017Z,4.65
2022-09-10T13:58:50.206Z,10.93
2022-09-10T14:01:59.502Z,4.10
2022-09-10T14:05:05.515Z,3.75
2022-09-10T14:08:17.812Z,6.38
2022-09-10T14:11:26.334Z,3.38
2022-09-10T14:14:38.879Z,3.95
2022-09-10T14:17:48.158Z,6.50
2022-09-10T14:20:54.690Z,5.90
2022-09-10T14:24:01.113Z,6.80
2022-09-10T14:27:15.780Z,8.95
2022-09-10T14:30:27.424Z,3.60
2022-09-10T14:33:35.476Z,4.50
2022-09-10T14:36:42.006Z,3.13
2022-09-10T14:39:48.945Z,5.72
2022-09-10T14:43:15.362Z,2.97
2022-09-10T14:46:50.590Z,4.05
2022-09-10T14:50:16.581Z,3.55
2022-09-10T14:53:22.616Z,9.90
2022-09-10T15:08:10.983Z,6.32
2022-09-10T15:11:19.190Z,6.68
2022-09-10T15:14:26.105Z,5.47
2022-09-10T15:17:32.151Z,5.53
2022-09-10T15:20:38.925Z,8.43
2022-09-10T15:23:48.349Z,8.90
2022-09-10T15:26:57.094Z,4.67
2022-09-10T15:30:03.544Z,6.03
2022-09-10T15:33:14.374Z,4.53
2022-09-10T15:36:22.489Z,4.93
2022-09-10T15:39:30.325Z,12.03
2022-09-10T15:42:36.651Z,5.00
2022-09-10T15:45:43.271Z,8.80
2022-09-10T15:48:49.931Z,10.43
2022-09-10T15:51:57.364Z,12.33
2022-09-10T15:55:06.909Z,9.87
2022-09-10T15:58:12.891Z,6.63
2022-09-10T16:01:19.919Z,6.40
2022-09-10T16:04:27.868Z,6.40
2022-09-10T16:07:33.978Z,5.43
2022-09-10T16:10:42.370Z,4.97
2022-09-10T16:13:48.624Z,5.67
2022-09-10T16:16:54.467Z,11.13
2022-09-10T16:20:01.114Z,7.10
2022-09-10T16:23:07.582Z,6.20
2022-09-10T16:26:17.155Z,8.50
2022-09-10T16:29:23.291Z,6.50
2022-09-10T16:32:30.659Z,6.10
2022-09-10T16:35:37.223Z,6.33
2022-09-10T16:38:44.878Z,6.67
2022-09-10T16:41:52.664Z,7.53
2022-09-10T16:44:59.135Z,7.70
2022-09-10T16:48:06.341Z,8.80
2022-09-10T16:51:14.504Z,7.93
2022-09-10T16:54:21.126Z,13.27
2022-09-10T16:57:29.385Z,6.37
2022-09-10T17:00:35.671Z,10.20
2022-09-10T17:03:42.899Z,7.07
2022-09-10T17:06:49.476Z,9.10
2022-09-10T17:10:00.534Z,13.20
2022-09-10T17:13:09.673Z,12.03
2022-09-10T17:16:17.762Z,11.70
2022-09-10T17:19:26.517Z,10.73
2022-09-10T17:22:32.908Z,14.70
2022-09-10T17:25:38.871Z,14.33
2022-09-10T17:28:53.508Z,25.57
2022-09-10T17:31:59.745Z,12.47
2022-09-10T17:35:06.714Z,16.23
2022-09-10T17:38:12.602Z,15.23
2022-09-10T17:41:18.751Z,11.87
2022-09-10T17:44:27.042Z,8.13
2022-09-10T17:47:34.359Z,9.50
2022-09-10T17:50:46.607Z,10.77
2022-09-10T17:53:55.331Z,15.67
2022-09-10T17:57:01.632Z,12.73
2022-09-10T18:00:11.253Z,19.00
2022-09-10T18:03:18.835Z,12.83
2022-09-10T18:06:25.693Z,9.80
2022-09-10T18:09:31.850Z,10.83
2022-09-10T18:12:38.204Z,12.23
2022-09-10T18:15:46.543Z,7.40
2022-09-10T18:18:55.934Z,7.63
2022-09-10T18:22:02.944Z,5.77
2022-09-10T18:25:10.011Z,6.50
2022-09-10T18:28:16.158Z,8.63
2022-09-10T18:31:24.777Z,9.37
2022-09-10T18:34:31.961Z,15.20
2022-09-10T18:37:39.688Z,13.80
2022-09-10T18:40:45.925Z,16.73
2022-09-10T18:43:54.035Z,13.23
2022-09-10T18:47:01.992Z,11.50
2022-09-10T18:50:09.182Z,15.63
2022-09-10T18:53:15.982Z,24.03
2022-09-10T18:56:24.474Z,19.73
2022-09-10T18:59:30.892Z,12.47
2022-09-10T19:02:38.687Z,10.00
2022-09-10T19:05:44.928Z,10.53
2022-09-10T19:08:53.838Z,10.70
2022-09-10T19:12:01.629Z,8.80
2022-09-10T19:15:08.593Z,9.23
2022-09-10T19:18:16.133Z,11.60
2022-09-10T19:21:24.110Z,9.23
2022-09-10T19:27:58.746Z,21.13
2022-09-10T19:31:05.625Z,14.17
2022-09-10T19:34:14.524Z,14.87
2022-09-10T19:37:21.061Z,10.10
2022-09-10T19:40:27.420Z,19.40
2022-09-10T19:43:34.408Z,25.80
2022-09-10T19:46:41.235Z,45.67
2022-09-10T19:49:49.315Z,52.07
2022-09-10T19:52:56.097Z,61.83
2022-09-10T19:56:06.923Z,51.90
2022-09-10T19:59:14.660Z,32.30
2022-09-10T20:02:21.080Z,44.30
2022-09-10T20:05:29.071Z,25.10
2022-09-10T20:08:36.113Z,25.67
2022-09-10T20:11:42.316Z,23.47
2022-09-10T20:14:48.476Z,25.57
2022-09-10T20:17:55.010Z,23.27
2022-09-10T20:21:12.974Z,19.87
2022-09-10T20:24:19.270Z,12.97
2022-09-10T20:27:25.696Z,7.77
2022-09-10T20:30:32.216Z,10.07
2022-09-10T20:33:39.075Z,9.47
2022-09-10T20:36:47.107Z,8.00
2022-09-10T20:39:53.915Z,12.70
2022-09-10T20:43:00.207Z,7.10
2022-09-10T20:46:06.681Z,11.40
2022-09-10T20:49:14.027Z,14.50
2022-09-10T20:52:21.738Z,7.20
2022-09-10T20:55:27.787Z,12.10
2022-09-10T20:58:35.520Z,13.93
2022-09-10T21:01:42.030Z,19.30
2022-09-10T21:04:48.476Z,29.53
2022-09-10T21:07:56.632Z,29.33
2022-09-10T21:11:05.075Z,21.93
2022-09-10T21:14:13.007Z,18.50
2022-09-10T21:17:19.730Z,18.73
2022-09-10T21:20:25.883Z,14.87
2022-09-10T21:23:33.755Z,10.53
2022-09-10T21:26:43.492Z,7.80
2022-09-10T21:29:51.205Z,10.30
2022-09-10T21:32:57.108Z,7.40
2022-09-10T21:36:06.482Z,11.67
2022-09-10T21:39:16.114Z,10.57
2022-09-10T21:42:22.435Z,10.80
2022-09-10T21:45:28.861Z,6.27
2022-09-10T21:48:36.471Z,12.73
2022-09-10T21:51:43.298Z,5.97
2022-09-10T21:54:50.865Z,6.70
2022-09-10T21:57:57.331Z,8.17
2022-09-10T22:01:04.120Z,6.77
2022-09-10T22:04:11.183Z,8.93
2022-09-10T22:07:17.543Z,7.30
2022-09-10T22:10:26.635Z,5.57
2022-09-10T22:13:33.152Z,4.83
2022-09-10T22:16:39.291Z,7.17
2022-09-10T22:19:45.572Z,5.77
2022-09-10T22:22:51.859Z,6.97
2022-09-10T22:26:05.484Z,5.30
2022-09-10T22:29:13.080Z,9.23
2022-09-10T22:32:19.575Z,7.97
2022-09-10T22:35:26.858Z,6.57
2022-09-10T22:38:33.274Z,4.93
2022-09-10T22:41:41.538Z,6.17
2022-09-10T22:44:47.970Z,5.10
2022-09-10T22:47:54.267Z,6.43
2022-09-10T22:51:00.574Z,4.80
2022-09-10T22:54:07.767Z,5.80
2022-09-10T22:57:15.168Z,13.17
2022-09-10T23:00:22.315Z,5.10
2022-09-10T23:03:28.478Z,7.07
2022-09-10T23:06:36.184Z,9.33
2022-09-10T23:09:42.328Z,6.53
2022-09-10T23:12:49.810Z,6.50
2022-09-10T23:15:55.809Z,6.27
2022-09-10T23:19:04.004Z,4.37
2022-09-10T23:22:11.471Z,6.10
2022-09-10T23:25:18.758Z,5.97
2022-09-10T23:28:29.223Z,5.97
2022-09-10T23:31:38.747Z,5.83
2022-09-10T23:34:45.307Z,5.73
2022-09-10T23:37:51.379Z,5.33
2022-09-10T23:40:58.805Z,5.77
2022-09-10T23:44:06.500Z,8.97
2022-09-10T23:47:12.887Z,13.63
2022-09-10T23:50:19.188Z,5.23
2022-09-10T23:53:26.319Z,5.30
2022-09-10T23:56:32.785Z,6.73
2022-09-10T23:59:40.439Z,5.03
